createdAt,value
2022-12-06T00:02:22.091Z,49.30
2022-12-06T00:04:51.023Z,47.00
2022-12-06T00:07:18.473Z,45.70
2022-12-06T00:09:46.156Z,46.20
2022-12-06T00:12:13.380Z,46.60
2022-12-06T00:14:41.110Z,44.50
2022-12-06T00:17:08.514Z,44.10
2022-12-06T00:19:36.229Z,49.70
2022-12-06T00:22:03.669Z,46.00
2022-12-06T00:24:31.184Z,43.10
2022-12-06T00:26:58.597Z,46.80
2022-12-06T00:29:26.637Z,45.70
2022-12-06T00:31:54.630Z,43.80
2022-12-06T00:34:21.994Z,44.60
2022-12-06T00:36:49.629Z,43.80
2022-12-06T00:39:18.696Z,44.90
2022-12-06T00:41:46.824Z,44.00
2022-12-06T00:44:14.540Z,45.80
2022-12-06T00:46:42.233Z,44.20
2022-12-06T00:49:10.561Z,43.10
2022-12-06T00:51:38.699Z,48.40
2022-12-06T00:54:07.071Z,48.20
2022-12-06T00:56:35.934Z,45.70
2022-12-06T00:59:03.436Z,47.70
2022-12-06T01:01:33.474Z,52.10
2022-12-06T01:04:03.029Z,44.60
2022-12-06T01:06:33.139Z,45.80
2022-12-06T01:09:02.468Z,46.40
2022-12-06T01:11:31.118Z,49.20
2022-12-06T01:13:59.054Z,46.50
2022-12-06T01:16:30.172Z,46.70
2022-12-06T01:18:59.428Z,46.70
2022-12-06T01:21:27.562Z,45.30
2022-12-06T01:23:55.775Z,46.10
2022-12-06T01:26:25.053Z,49.20
2022-12-06T01:28:52.106Z,50.00
2022-12-06T01:31:20.103Z,47.80
2022-12-06T01:33:47.855Z,49.90
2022-12-06T01:36:21.451Z,49.20
2022-12-06T01:38:52.160Z,48.70
2022-12-06T01:41:19.446Z,50.90
2022-12-06T01:43:48.129Z,54.40
2022-12-06T01:46:26.362Z,49.90
2022-12-06T01:48:57.633Z,50.80
2022-12-06T01:51:25.261Z,46.50
2022-12-06T01:53:54.563Z,50.40
2022-12-06T01:56:22.665Z,49.70
2022-12-06T01:58:53.967Z,47.40
2022-12-06T02:01:21.489Z,50.80
2022-12-06T02:03:49.430Z,47.10
2022-12-06T02:06:16.953Z,49.00
2022-12-06T02:08:45.645Z,54.10
2022-12-06T02:11:13.087Z,48.00
2022-12-06T02:13:40.677Z,44.90
2022-12-06T02:16:19.662Z,51.80
2022-12-06T02:18:51.650Z,47.70
2022-12-06T02:21:33.627Z,50.10
2022-12-06T02:24:44.753Z,51.30
2022-12-06T02:27:33.820Z,50.80
2022-12-06T02:30:18.678Z,46.90
2022-12-06T02:32:55.097Z,50.60
2022-12-06T02:37:58.743Z,51.00
2022-12-06T02:40:32.553Z,51.00
2022-12-06T02:43:03.900Z,47.40
2022-12-06T02:45:35.045Z,51.50
2022-12-06T02:48:06.004Z,49.70
2022-12-06T02:50:38.866Z,52.00
2022-12-06T02:53:08.782Z,49.20
2022-12-06T02:55:37.319Z,52.50
2022-12-06T02:58:04.454Z,48.20
2022-12-06T03:00:38.767Z,49.40
2022-12-06T03:03:22.369Z,49.50
2022-12-06T03:06:07.182Z,49.30
2022-12-06T03:08:43.607Z,50.00
2022-12-06T03:11:11.708Z,48.20
2022-12-06T03:13:48.759Z,49.20
2022-12-06T03:16:23.319Z,53.20
2022-12-06T03:18:56.886Z,53.20
2022-12-06T03:21:28.951Z,53.10
2022-12-06T03:23:57.945Z,54.00
2022-12-06T03:26:29.595Z,53.10
2022-12-06T03:29:01.842Z,57.10
2022-12-06T03:31:33.637Z,55.10
2022-12-06T03:34:03.810Z,55.50
2022-12-06T03:36:33.248Z,54.10
2022-12-06T03:39:03.472Z,57.70
2022-12-06T03:41:37.185Z,56.60
2022-12-06T03:44:04.658Z,52.10
2022-12-06T03:46:36.686Z,51.10
2022-12-06T03:49:08.047Z,55.30
2022-12-06T03:51:37.589Z,58.40
2022-12-06T03:54:07.200Z,56.20
2022-12-06T03:56:37.114Z,52.20
2022-12-06T03:59:05.864Z,51.50
2022-12-06T04:01:33.056Z,53.50
2022-12-06T04:04:01.066Z,52.50
2022-12-06T04:06:28.482Z,49.50
2022-12-06T04:09:17.069Z,53.80
2022-12-06T04:11:44.468Z,56.40
2022-12-06T04:14:12.113Z,59.60
2022-12-06T04:16:57.694Z,58.20
2022-12-06T04:19:25.150Z,55.30
2022-12-06T04:22:10.025Z,52.20
2022-12-06T04:24:37.081Z,51.30
2022-12-06T04:27:18.356Z,58.00
2022-12-06T04:30:03.314Z,51.60
2022-12-06T04:32:47.910Z,51.00
2022-12-06T04:35:32.807Z,58.90
2022-12-06T04:38:19.548Z,53.30
2022-12-06T04:40:48.340Z,54.50
2022-12-06T04:43:32.998Z,48.70
2022-12-06T04:46:00.700Z,55.50
2022-12-06T04:48:27.781Z,54.50
2022-12-06T04:50:55.064Z,54.00
2022-12-06T04:53:22.318Z,57.00
2022-12-06T04:55:50.389Z,56.50
2022-12-06T04:58:17.579Z,54.80
2022-12-06T05:00:45.625Z,53.70
2022-12-06T05:03:12.969Z,59.20
2022-12-06T05:05:40.525Z,54.90
2022-12-06T05:08:08.353Z,54.70
2022-12-06T05:10:36.060Z,57.30
2022-12-06T05:13:03.853Z,54.20
2022-12-06T05:15:31.892Z,56.20
2022-12-06T05:17:59.294Z,52.00
2022-12-06T05:20:26.568Z,48.50
2022-12-06T05:22:53.956Z,51.90
2022-12-06T05:25:21.121Z,50.80
2022-12-06T05:27:48.626Z,51.70
2022-12-06T05:30:18.171Z,53.60
2022-12-06T05:32:45.221Z,50.10
2022-12-06T05:35:12.827Z,55.50
2022-12-06T05:37:40.254Z,52.40
2022-12-06T05:40:09.518Z,49.80
2022-12-06T05:42:36.588Z,45.70
2022-12-06T05:45:03.945Z,47.80
2022-12-06T05:47:31.299Z,51.50
2022-12-06T05:49:58.727Z,47.50
2022-12-06T05:52:26.096Z,50.20
2022-12-06T05:54:53.264Z,46.90
2022-12-06T05:57:20.410Z,43.40
2022-12-06T05:59:47.422Z,46.30
2022-12-06T06:02:14.655Z,44.50
2022-12-06T06:04:41.891Z,42.40
2022-12-06T06:07:09.009Z,42.20
2022-12-06T06:09:36.464Z,37.90
2022-12-06T06:12:05.825Z,40.20
2022-12-06T06:14:37.193Z,40.70
2022-12-06T06:17:04.582Z,42.10
2022-12-06T06:19:31.929Z,40.70
2022-12-06T06:21:59.043Z,43.10
2022-12-06T06:24:26.291Z,42.50
2022-12-06T06:26:53.398Z,41.10
2022-12-06T06:29:20.734Z,39.80
2022-12-06T06:31:47.971Z,39.40
2022-12-06T06:34:15.481Z,37.00
2022-12-06T06:36:45.877Z,37.50
2022-12-06T06:39:13.226Z,35.30
2022-12-06T06:41:40.635Z,38.10
2022-12-06T06:44:07.776Z,38.50
2022-12-06T06:46:34.953Z,37.20
2022-12-06T06:49:02.346Z,35.70
2022-12-06T06:51:31.627Z,36.30
2022-12-06T06:53:58.680Z,37.10
2022-12-06T06:56:26.381Z,38.00
2022-12-06T06:58:53.486Z,36.20
2022-12-06T07:01:23.388Z,32.90
2022-12-06T07:03:51.735Z,37.00
2022-12-06T07:06:19.471Z,36.40
2022-12-06T07:08:47.773Z,30.30
2022-12-06T07:11:15.944Z,34.50
2022-12-06T07:13:51.119Z,32.20
2022-12-06T07:18:47.776Z,31.70
2022-12-06T07:21:17.015Z,36.20
2022-12-06T07:23:44.259Z,34.70
2022-12-06T07:26:13.750Z,36.40
2022-12-06T07:28:42.241Z,32.00
2022-12-06T07:31:15.766Z,28.90
2022-12-06T07:33:43.867Z,28.70
2022-12-06T07:36:14.075Z,28.10
2022-12-06T07:38:42.242Z,30.70
2022-12-06T07:41:25.741Z,31.30
2022-12-06T07:44:10.506Z,31.70
2022-12-06T07:46:37.729Z,33.30
2022-12-06T07:49:05.233Z,31.70
2022-12-06T07:51:33.185Z,30.60
2022-12-06T07:54:00.437Z,29.40
2022-12-06T07:56:27.964Z,27.50
2022-12-06T07:58:55.645Z,27.40
2022-12-06T08:01:23.560Z,32.70
2022-12-06T08:03:51.511Z,34.50
2022-12-06T08:06:18.872Z,32.40
2022-12-06T08:08:46.512Z,35.00
2022-12-06T08:11:13.631Z,33.60
2022-12-06T08:13:41.028Z,28.00
2022-12-06T08:16:25.180Z,34.60
2022-12-06T08:18:52.707Z,32.80
2022-12-06T08:21:19.983Z,31.90
2022-12-06T08:23:47.500Z,32.30
2022-12-06T08:26:19.843Z,36.90
2022-12-06T08:28:47.062Z,34.90
2022-12-06T08:31:17.228Z,35.90
2022-12-06T08:33:44.782Z,39.10
2022-12-06T08:36:14.932Z,36.80
2022-12-06T08:38:43.562Z,37.50
2022-12-06T08:41:32.507Z,40.10
2022-12-06T08:44:01.035Z,40.40
2022-12-06T08:46:28.990Z,46.60
2022-12-06T08:48:56.314Z,40.60
2022-12-06T08:51:23.874Z,39.50
2022-12-06T08:53:51.065Z,38.70
2022-12-06T08:56:18.491Z,42.80
2022-12-06T08:58:45.734Z,42.10
2022-12-06T09:01:17.761Z,39.50
2022-12-06T09:03:45.693Z,40.90
2022-12-06T09:06:14.045Z,41.10
2022-12-06T09:08:41.402Z,41.70
2022-12-06T09:11:09.778Z,46.10
2022-12-06T09:13:38.244Z,43.40
2022-12-06T09:16:08.981Z,41.30
2022-12-06T09:18:36.966Z,43.60
2022-12-06T09:21:08.015Z,44.00
2022-12-06T09:23:36.490Z,42.90
2022-12-06T09:26:04.456Z,44.60
2022-12-06T09:28:32.989Z,42.10
2022-12-06T09:31:00.671Z,42.70
2022-12-06T09:33:28.159Z,44.40
2022-12-06T09:35:55.361Z,42.70
2022-12-06T09:38:25.532Z,43.30
2022-12-06T09:41:10.535Z,41.50
2022-12-06T09:43:52.093Z,41.70
2022-12-06T09:46:33.631Z,42.80
2022-12-06T09:49:30.319Z,38.50
2022-12-06T09:52:20.978Z,43.10
2022-12-06T09:55:02.102Z,42.70
2022-12-06T09:57:37.462Z,44.70
2022-12-06T10:00:11.647Z,42.80
2022-12-06T10:02:57.710Z,44.10
2022-12-06T10:05:54.218Z,48.20
2022-12-06T10:08:33.726Z,46.00
2022-12-06T10:11:08.832Z,46.20
2022-12-06T10:13:52.504Z,47.30
2022-12-06T10:16:45.022Z,47.90
2022-12-06T10:19:26.550Z,46.10
2022-12-06T10:22:04.026Z,51.30
2022-12-06T10:24:50.329Z,53.00
2022-12-06T10:27:24.366Z,52.50
2022-12-06T10:29:58.962Z,55.10
2022-12-06T10:32:49.909Z,57.80
2022-12-06T10:35:25.739Z,59.30
2022-12-06T10:38:12.586Z,52.60
2022-12-06T10:40:51.154Z,59.70
2022-12-06T10:43:25.152Z,57.30
2022-12-06T10:46:18.905Z,59.00
2022-12-06T10:48:57.134Z,61.10
2022-12-06T10:51:31.802Z,58.10
2022-12-06T10:54:04.906Z,56.50
2022-12-06T10:56:36.361Z,55.70
2022-12-06T10:59:22.001Z,52.20
2022-12-06T11:01:50.470Z,53.70
2022-12-06T11:04:25.578Z,56.60
2022-12-06T11:06:55.641Z,50.60
2022-12-06T11:09:31.801Z,51.90
2022-12-06T11:11:59.871Z,46.20
2022-12-06T11:14:31.847Z,45.70
2022-12-06T11:17:03.696Z,47.40
2022-12-06T11:19:34.918Z,49.60
2022-12-06T11:22:13.049Z,45.80
2022-12-06T11:24:49.573Z,47.90
2022-12-06T11:27:23.014Z,52.50
2022-12-06T11:29:51.822Z,51.20
2022-12-06T11:32:20.182Z,47.00
2022-12-06T11:34:52.579Z,48.20
2022-12-06T11:37:22.644Z,49.00
2022-12-06T11:39:52.995Z,56.60
2022-12-06T11:42:24.901Z,51.60
2022-12-06T11:44:59.610Z,50.50
2022-12-06T11:47:27.724Z,53.60
2022-12-06T11:50:00.391Z,46.10
2022-12-06T11:52:37.934Z,47.20
2022-12-06T11:55:16.043Z,41.90
2022-12-06T11:57:47.800Z,48.10
2022-12-06T12:00:19.551Z,43.60
2022-12-06T12:02:48.698Z,49.00
2022-12-06T12:05:22.568Z,46.80
2022-12-06T12:07:53.419Z,47.90
2022-12-06T12:10:35.001Z,46.80
2022-12-06T12:13:35.522Z,55.50
2022-12-06T12:16:07.753Z,53.20
2022-12-06T12:18:37.634Z,50.40
2022-12-06T12:21:08.205Z,51.40
2022-12-06T12:23:38.461Z,62.70
2022-12-06T12:26:13.197Z,68.00
2022-12-06T12:28:42.226Z,57.60
2022-12-06T12:31:18.822Z,52.00
2022-12-06T12:33:46.935Z,53.80
2022-12-06T12:36:21.654Z,46.80
2022-12-06T12:38:55.563Z,57.10
2022-12-06T12:41:32.444Z,53.20
2022-12-06T12:44:35.921Z,51.30
2022-12-06T12:46:55.716Z,55.90
2022-12-06T12:49:29.730Z,58.40
2022-12-06T12:51:57.495Z,58.20
2022-12-06T12:54:31.609Z,57.10
2022-12-06T12:57:00.502Z,59.30
2022-12-06T12:59:34.215Z,58.80
2022-12-06T13:02:12.818Z,53.30
2022-12-06T13:04:43.715Z,55.70
2022-12-06T13:07:20.031Z,59.80
2022-12-06T13:09:56.668Z,60.40
2022-12-06T13:12:30.310Z,67.20
2022-12-06T13:15:04.157Z,61.40
2022-12-06T13:17:37.229Z,62.70
2022-12-06T13:20:16.187Z,66.70
2022-12-06T13:22:45.631Z,62.80
2022-12-06T13:25:14.928Z,69.50
2022-12-06T13:27:44.801Z,66.60
2022-12-06T13:30:18.090Z,66.70
2022-12-06T13:32:50.410Z,62.80
2022-12-06T13:35:26.939Z,59.50
2022-12-06T13:37:59.041Z,63.70
2022-12-06T13:40:51.561Z,70.70
2022-12-06T13:43:52.736Z,68.40
2022-12-06T13:46:34.502Z,71.00
2022-12-06T13:49:04.001Z,72.50
2022-12-06T13:51:51.172Z,70.70
2022-12-06T13:54:38.171Z,66.80
2022-12-06T13:57:29.958Z,68.50
2022-12-06T13:59:57.586Z,69.10
2022-12-06T14:02:54.079Z,60.60
2022-12-06T14:08:23.507Z,67.70
2022-12-06T14:10:50.887Z,64.10
2022-12-06T14:13:21.461Z,61.80
2022-12-06T14:15:53.434Z,64.90
2022-12-06T14:18:27.698Z,60.40
2022-12-06T14:20:58.628Z,62.00
2022-12-06T14:23:32.791Z,61.10
2022-12-06T14:26:19.791Z,57.10
2022-12-06T14:28:47.681Z,68.60
2022-12-06T14:31:29.527Z,62.30
2022-12-06T14:33:57.940Z,59.50
2022-12-06T14:36:29.041Z,54.10
2022-12-06T14:39:00.859Z,61.20
2022-12-06T14:41:52.527Z,63.70
2022-12-06T14:44:21.879Z,58.30
2022-12-06T14:46:51.205Z,59.50
2022-12-06T14:49:38.764Z,60.00
2022-12-06T14:52:19.682Z,61.30
2022-12-06T14:54:48.320Z,57.50
2022-12-06T14:57:26.529Z,59.90
2022-12-06T15:00:15.233Z,66.00
2022-12-06T15:03:03.493Z,64.00
2022-12-06T15:05:37.547Z,63.00
2022-12-06T15:08:31.420Z,62.00
2022-12-06T15:11:00.527Z,64.20
2022-12-06T15:13:29.097Z,64.60
2022-12-06T15:16:06.654Z,66.10
2022-12-06T15:18:37.035Z,59.60
2022-12-06T15:21:04.477Z,60.40
2022-12-06T15:23:38.548Z,64.00
2022-12-06T15:26:07.188Z,63.30
2022-12-06T15:28:35.822Z,62.90
2022-12-06T15:31:04.114Z,58.70
2022-12-06T15:33:31.697Z,62.30
2022-12-06T15:35:59.730Z,59.80
2022-12-06T15:38:27.434Z,55.40
2022-12-06T15:40:55.893Z,52.90
2022-12-06T15:43:32.688Z,56.60
2022-12-06T15:46:02.448Z,57.50
2022-12-06T15:48:30.370Z,60.00
2022-12-06T15:50:58.237Z,58.00
2022-12-06T15:53:26.331Z,55.30
2022-12-06T15:55:54.149Z,54.00
2022-12-06T15:58:22.905Z,54.40
2022-12-06T16:00:50.579Z,52.60
2022-12-06T16:03:18.095Z,50.50
2022-12-06T16:05:45.286Z,47.60
2022-12-06T16:08:12.456Z,44.10
2022-12-06T16:11:10.304Z,49.60
2022-12-06T16:13:26.905Z,49.90
2022-12-06T16:15:54.896Z,49.00
2022-12-06T16:18:22.533Z,47.20
2022-12-06T16:20:50.195Z,50.70
2022-12-06T16:24:04.556Z,47.40
2022-12-06T16:26:24.494Z,50.50
2022-12-06T16:28:51.748Z,48.70
2022-12-06T16:31:18.963Z,46.70
2022-12-06T16:33:46.280Z,46.70
2022-12-06T16:36:18.853Z,46.20
2022-12-06T16:38:46.129Z,44.20
2022-12-06T16:41:22.001Z,43.40
2022-12-06T16:43:50.179Z,44.50
2022-12-06T16:46:27.759Z,45.10
2022-12-06T16:49:10.675Z,44.40
2022-12-06T16:51:47.277Z,44.10
2022-12-06T16:54:14.579Z,42.10
2022-12-06T16:56:42.090Z,35.70
2022-12-06T16:59:10.594Z,38.20
2022-12-06T17:01:47.124Z,32.90
2022-12-06T17:04:14.373Z,30.90
2022-12-06T17:06:41.737Z,29.90
2022-12-06T17:09:08.887Z,29.50
2022-12-06T17:11:54.655Z,30.50
2022-12-06T17:14:25.318Z,25.30
2022-12-06T17:16:53.283Z,25.20
2022-12-06T17:19:23.054Z,28.10
2022-12-06T17:21:51.880Z,28.40
2022-12-06T17:24:20.401Z,25.30
2022-12-06T17:26:47.919Z,26.90
2022-12-06T17:29:15.100Z,30.20
2022-12-06T17:31:43.006Z,30.50
2022-12-06T17:34:12.469Z,28.30
2022-12-06T17:36:40.391Z,28.50
2022-12-06T17:39:10.870Z,28.70
2022-12-06T17:41:55.733Z,29.00
2022-12-06T17:44:23.527Z,28.80
2022-12-06T17:46:51.410Z,29.00
2022-12-06T17:49:20.293Z,28.10
2022-12-06T17:51:47.972Z,32.30
2022-12-06T17:54:15.475Z,28.20
2022-12-06T17:56:44.538Z,28.20
2022-12-06T17:59:14.121Z,30.50
2022-12-06T18:02:13.700Z,30.70
2022-12-06T18:04:30.742Z,32.40
2022-12-06T18:06:58.582Z,27.80
2022-12-06T18:09:26.161Z,27.50
2022-12-06T18:11:53.524Z,26.10
2022-12-06T18:14:20.832Z,29.10
2022-12-06T18:16:49.173Z,27.80
2022-12-06T18:19:18.619Z,33.00
2022-12-06T18:21:46.594Z,28.30
2022-12-06T18:24:25.741Z,26.20
2022-12-06T18:26:55.292Z,24.20
2022-12-06T18:29:24.332Z,29.20
2022-12-06T18:31:52.918Z,28.40
2022-12-06T18:34:20.884Z,29.00
2022-12-06T18:36:48.582Z,30.50
2022-12-06T18:39:17.294Z,27.60
2022-12-06T18:41:45.073Z,30.30
2022-12-06T18:44:14.392Z,30.50
2022-12-06T18:46:42.964Z,30.20
2022-12-06T18:49:10.848Z,27.80
2022-12-06T18:51:39.092Z,31.00
2022-12-06T18:54:07.175Z,33.40
2022-12-06T18:56:36.337Z,33.70
2022-12-06T18:59:05.599Z,40.50
2022-12-06T19:01:34.894Z,40.10
2022-12-06T19:04:04.189Z,40.50
2022-12-06T19:06:34.131Z,47.20
2022-12-06T19:09:06.399Z,48.30
2022-12-06T19:11:36.555Z,51.50
2022-12-06T19:14:03.860Z,55.60
2022-12-06T19:16:34.770Z,48.40
2022-12-06T19:19:03.908Z,56.40
2022-12-06T19:21:32.424Z,51.00
2022-12-06T19:24:00.179Z,48.90
2022-12-06T19:26:29.220Z,55.10
2022-12-06T19:28:56.419Z,55.50
2022-12-06T19:31:24.397Z,57.40
2022-12-06T19:33:52.904Z,50.90
2022-12-06T19:36:25.396Z,47.70
2022-12-06T19:38:57.991Z,42.90
2022-12-06T19:41:25.334Z,37.00
2022-12-06T19:44:10.713Z,38.90
2022-12-06T19:46:39.150Z,40.80
2022-12-06T19:49:07.728Z,38.40
2022-12-06T19:51:35.246Z,39.20
2022-12-06T19:54:02.799Z,36.20
2022-12-06T19:56:31.007Z,38.00
2022-12-06T19:58:59.813Z,37.30
2022-12-06T20:01:30.242Z,39.00
2022-12-06T20:03:58.047Z,34.20
2022-12-06T20:06:27.695Z,38.10
2022-12-06T20:08:57.238Z,37.10
2022-12-06T20:11:45.751Z,33.00
2022-12-06T20:14:15.296Z,35.50
2022-12-06T20:16:43.426Z,38.30
2022-12-06T20:19:11.590Z,42.10
2022-12-06T20:21:39.433Z,38.30
2022-12-06T20:24:07.230Z,36.00
2022-12-06T20:26:35.504Z,40.70
2022-12-06T20:29:03.213Z,44.00
2022-12-06T20:31:31.981Z,51.10
2022-12-06T20:34:00.841Z,52.90
2022-12-06T20:36:28.830Z,52.20
2022-12-06T20:38:56.869Z,53.10
2022-12-06T20:41:25.753Z,55.90
2022-12-06T20:43:53.699Z,65.40
2022-12-06T20:46:25.072Z,73.00
2022-12-06T20:48:53.197Z,67.50
2022-12-06T20:51:22.572Z,64.60
2022-12-06T20:53:50.140Z,62.50
2022-12-06T20:56:20.304Z,68.80
2022-12-06T20:58:48.777Z,69.70
2022-12-06T21:01:19.210Z,65.70
2022-12-06T21:03:46.900Z,63.70
2022-12-06T21:06:14.779Z,66.50
2022-12-06T21:08:42.689Z,42.90
2022-12-06T21:11:25.957Z,43.50
2022-12-06T21:13:54.380Z,48.00
2022-12-06T21:16:23.635Z,43.00
2022-12-06T21:18:54.870Z,43.60
2022-12-06T21:21:27.415Z,39.80
2022-12-06T21:23:54.741Z,37.60
2022-12-06T21:26:22.136Z,36.80
2022-12-06T21:28:49.298Z,41.70
2022-12-06T21:31:16.436Z,35.90
2022-12-06T21:33:43.509Z,41.20
2022-12-06T21:36:11.998Z,39.30
2022-12-06T21:38:39.179Z,40.90
2022-12-06T21:41:12.718Z,42.70
2022-12-06T21:43:40.476Z,40.50
2022-12-06T21:46:09.995Z,33.40
2022-12-06T21:48:37.522Z,28.30
2022-12-06T21:51:07.398Z,29.90
2022-12-06T21:53:35.253Z,35.70
2022-12-06T21:56:05.754Z,33.70
2022-12-06T21:58:32.817Z,32.70
2022-12-06T22:01:06.754Z,34.90
2022-12-06T22:03:33.967Z,29.10
2022-12-06T22:06:04.065Z,34.00
2022-12-06T22:08:31.219Z,31.70
2022-12-06T22:10:58.494Z,37.20
2022-12-06T22:13:25.885Z,27.10
2022-12-06T22:15:53.117Z,26.50
2022-12-06T22:18:20.210Z,24.70
2022-12-06T22:20:56.652Z,24.10
2022-12-06T22:23:24.170Z,20.10
2022-12-06T22:25:51.261Z,18.70
2022-12-06T22:28:18.652Z,18.40
2022-12-06T22:30:45.769Z,20.80
2022-12-06T22:33:12.858Z,19.80
2022-12-06T22:35:43.236Z,21.70
2022-12-06T22:38:10.391Z,19.60
2022-12-06T22:40:37.560Z,21.80
2022-12-06T22:43:10.705Z,20.90
2022-12-06T22:45:37.804Z,21.60
2022-12-06T22:48:05.011Z,20.50
2022-12-06T22:50:32.145Z,22.80
2022-12-06T22:52:59.274Z,21.20
2022-12-06T22:55:26.338Z,21.70
2022-12-06T22:57:53.424Z,25.30
2022-12-06T23:00:21.805Z,27.60
2022-12-06T23:02:48.965Z,25.60
2022-12-06T23:05:16.201Z,25.40
2022-12-06T23:07:43.446Z,26.60
2022-12-06T23:10:13.755Z,31.40
2022-12-06T23:12:41.500Z,28.40
2022-12-06T23:15:10.278Z,31.60
2022-12-06T23:17:39.184Z,29.80
2022-12-06T23:20:08.106Z,35.10
2022-12-06T23:22:35.661Z,34.70
2022-12-06T23:25:02.761Z,38.20
2022-12-06T23:27:29.952Z,36.00
2022-12-06T23:29:57.002Z,33.70
2022-12-06T23:32:23.984Z,31.20
2022-12-06T23:34:51.263Z,35.20
2022-12-06T23:37:18.327Z,34.70
2022-12-06T23:39:45.800Z,33.60
2022-12-06T23:42:12.944Z,37.00
2022-12-06T23:44:40.233Z,35.90
2022-12-06T23:47:07.759Z,34.80
2022-12-06T23:49:34.917Z,40.20
2022-12-06T23:52:02.064Z,36.10
2022-12-06T23:54:29.153Z,40.80
2022-12-06T23:56:56.398Z,38.20
2022-12-06T23:59:23.547Z,39.50
